Terminal Aerodrome Forecast
Issued by NWS Cleveland, OH

Home | Current Version | Previous Version | Text Only | Print | Product List | Glossary On
Versions: 1 2 3 4 5 6 7 8 9 10 11 12 13 14 15 16 17 18 19 20
500
FTUS41 KCLE 181737
TAFCAK
TAF
KCAK 181737Z 1818/1918 28010KT 5SM BR OVC008
      TEMPO 1818/1821 P6SM NSW OVC012
     FM182100 26008KT P6SM OVC012
     FM190300 24005KT 4SM BR OVC007
     FM191400 22005KT P6SM OVC009=

USA.gov is the U.S. government's official web portal to all federal, state and local government web resources and services.